Time;durP1;ratioP1;P1;durP2;ratioP2;P2;SDS_P1;SDS_P2;PMS_P1;PMS_P2;Temp;Humidity;BMP_temperature;BMP_pressure;BME280_temperature;BME280_humidity;BME280_pressure;Samples;Min_cycle;Max_cycle;Signal;HPM_P1;HPM_P2
2023/08/18 00:00:11;;;;;;;4.68;3.53;;;25.10;67.20;;;;;;4994435;28;20647;-83
2023/08/18 00:02:38;;;;;;;5.35;3.60;;;25.00;67.20;;;;;;4995867;28;20255;-84
2023/08/18 00:05:06;;;;;;;4.13;3.60;;;25.00;67.30;;;;;;4994503;28;20209;-84
2023/08/18 00:07:33;;;;;;;3.95;3.65;;;25.00;67.30;;;;;;4997755;28;20234;-84
2023/08/18 00:10:01;;;;;;;4.40;3.38;;;25.00;67.10;;;;;;4998510;28;20200;-83
2023/08/18 00:12:28;;;;;;;3.67;3.28;;;25.00;67.10;;;;;;4998189;28;20686;-83
2023/08/18 00:14:55;;;;;;;7.85;3.50;;;25.00;67.10;;;;;;4998047;28;20211;-84
2023/08/18 00:17:24;;;;;;;3.58;3.28;;;25.00;67.10;;;;;;4997404;28;20197;-83
2023/08/18 00:19:51;;;;;;;4.03;3.30;;;24.90;66.90;;;;;;4997734;28;20220;-84
2023/08/18 00:22:18;;;;;;;3.70;3.15;;;24.90;67.00;;;;;;4997741;28;20220;-84
2023/08/18 00:24:45;;;;;;;4.22;3.75;;;24.90;67.00;;;;;;4997981;28;20567;-84
2023/08/18 00:27:12;;;;;;;4.05;3.20;;;24.90;66.90;;;;;;4997141;28;20220;-84
2023/08/18 00:29:40;;;;;;;4.47;3.72;;;24.90;66.90;;;;;;4997378;28;20197;-84
2023/08/18 00:32:07;;;;;;;3.65;3.22;;;24.90;67.00;;;;;;4997178;28;20224;-84
2023/08/18 00:34:35;;;;;;;3.42;3.03;;;24.80;66.70;;;;;;4997519;28;20201;-83
2023/08/18 00:37:04;;;;;;;4.00;3.60;;;24.80;66.80;;;;;;4997471;28;20328;-84
2023/08/18 00:39:31;;;;;;;4.13;3.42;;;24.80;66.80;;;;;;4983205;28;20201;-83
2023/08/18 00:41:58;;;;;;;3.95;3.58;;;24.80;66.60;;;;;;4998496;28;20311;-83
2023/08/18 00:44:27;;;;;;;3.58;3.28;;;24.80;66.60;;;;;;4997928;28;20209;-83
2023/08/18 00:46:54;;;;;;;4.22;2.90;;;24.80;66.70;;;;;;4997771;28;20691;-83
2023/08/18 00:49:21;;;;;;;5.10;3.28;;;24.70;66.40;;;;;;4997570;28;20204;-83
2023/08/18 00:51:49;;;;;;;3.95;3.10;;;24.70;66.30;;;;;;4997723;28;20232;-83
2023/08/18 00:54:16;;;;;;;5.18;3.40;;;24.70;66.40;;;;;;4997355;28;20201;-83
2023/08/18 00:56:45;;;;;;;5.05;3.35;;;24.70;66.50;;;;;;4997373;28;20203;-84
2023/08/18 00:59:12;;;;;;;4.05;3.50;;;24.70;66.50;;;;;;4997262;28;20577;-83
2023/08/18 01:01:39;;;;;;;3.92;3.42;;;24.70;66.40;;;;;;4996808;28;20217;-83
2023/08/18 01:04:06;;;;;;;3.75;3.00;;;24.60;66.40;;;;;;4997080;28;20555;-83
2023/08/18 01:06:34;;;;;;;4.65;3.53;;;24.70;66.40;;;;;;4996852;28;20217;-83
2023/08/18 01:09:02;;;;;;;4.35;3.50;;;24.70;66.30;;;;;;4997329;28;20211;-83
2023/08/18 01:11:34;;;;;;;5.93;3.53;;;24.60;66.30;;;;;;4996770;28;20221;-83
2023/08/18 01:14:06;;;;;;;4.35;3.50;;;24.60;66.20;;;;;;4996735;28;20300;-83
2023/08/18 01:16:34;;;;;;;3.97;3.55;;;24.60;66.20;;;;;;4996361;28;20280;-83
2023/08/18 01:19:01;;;;;;;3.95;3.50;;;24.50;66.20;;;;;;4996517;28;20240;-83
2023/08/18 01:21:29;;;;;;;5.18;3.50;;;24.50;66.10;;;;;;4980583;28;20300;-83
2023/08/18 01:24:02;;;;;;;3.50;3.20;;;24.50;66.10;;;;;;4996190;28;20205;-83
2023/08/18 01:26:29;;;;;;;4.57;3.25;;;24.60;66.10;;;;;;4996141;28;20216;-83
2023/08/18 01:28:56;;;;;;;3.38;3.10;;;24.50;66.10;;;;;;4996004;28;20209;-83
2023/08/18 01:31:27;;;;;;;4.60;3.22;;;24.50;66.00;;;;;;4996600;28;20299;-83
2023/08/18 01:33:57;;;;;;;6.63;3.38;;;24.50;66.10;;;;;;4996525;28;20193;-83
2023/08/18 01:36:25;;;;;;;4.70;3.05;;;24.50;66.00;;;;;;4997075;28;20197;-84
2023/08/18 01:38:52;;;;;;;3.60;3.00;;;24.50;66.00;;;;;;4997304;28;20208;-83
2023/08/18 01:41:22;;;;;;;3.50;3.13;;;24.50;65.90;;;;;;5000284;28;20216;-84
2023/08/18 01:43:50;;;;;;;3.33;3.03;;;24.50;65.90;;;;;;4995825;28;20256;-84
2023/08/18 01:46:17;;;;;;;3.80;3.20;;;24.40;65.70;;;;;;4996024;28;20229;-84
2023/08/18 01:48:44;;;;;;;4.00;2.90;;;24.50;66.00;;;;;;4995775;28;20204;-84
2023/08/18 01:51:11;;;;;;;3.90;3.10;;;24.40;65.80;;;;;;4995581;28;20221;-84
2023/08/18 01:53:38;;;;;;;3.67;3.38;;;24.40;65.80;;;;;;4995737;28;20248;-84
2023/08/18 01:56:06;;;;;;;3.95;3.22;;;24.30;65.80;;;;;;4996028;28;20311;-83
2023/08/18 01:58:34;;;;;;;5.03;3.40;;;24.40;65.70;;;;;;4996627;28;20198;-84
2023/08/18 02:01:01;;;;;;;5.38;3.20;;;24.30;65.60;;;;;;4995482;28;20671;-84
2023/08/18 02:03:28;;;;;;;3.67;3.28;;;24.40;65.90;;;;;;4995612;28;20197;-84
2023/08/18 02:05:56;;;;;;;3.33;2.95;;;24.30;65.70;;;;;;4995659;28;20210;-84
2023/08/18 02:08:24;;;;;;;3.95;3.20;;;24.30;65.70;;;;;;4995632;28;20202;-83
2023/08/18 02:10:50;;;;;;;4.07;3.20;;;24.30;65.70;;;;;;4995340;28;20275;-84
2023/08/18 02:13:17;;;;;;;3.35;3.05;;;24.30;65.70;;;;;;4995431;28;20201;-84
2023/08/18 02:15:47;;;;;;;3.35;3.05;;;24.30;65.40;;;;;;4995733;28;20200;-84
2023/08/18 02:18:14;;;;;;;3.10;2.80;;;24.30;65.80;;;;;;4996860;28;20641;-84
2023/08/18 02:20:41;;;;;;;5.22;3.42;;;24.30;65.60;;;;;;4978852;28;20227;-84
2023/08/18 02:23:08;;;;;;;4.70;3.20;;;24.30;65.70;;;;;;4995208;28;20665;-83
2023/08/18 02:25:35;;;;;;;4.97;3.20;;;24.30;65.60;;;;;;4995241;28;20208;-83
2023/08/18 02:28:02;;;;;;;3.72;3.03;;;24.30;65.50;;;;;;4995288;28;20221;-84
2023/08/18 02:30:29;;;;;;;4.43;3.10;;;24.30;65.50;;;;;;4995014;28;20561;-83
2023/08/18 02:32:58;;;;;;;3.78;2.88;;;24.30;65.50;;;;;;4995068;28;20660;-83
2023/08/18 02:35:25;;;;;;;3.33;2.95;;;24.20;65.30;;;;;;4994568;28;20193;-83
2023/08/18 02:37:52;;;;;;;3.47;3.15;;;24.20;65.30;;;;;;4994950;28;20193;-83
2023/08/18 02:40:21;;;;;;;5.55;3.35;;;24.20;65.40;;;;;;4995387;28;20225;-83
2023/08/18 02:42:49;;;;;;;4.45;3.20;;;24.20;65.50;;;;;;4995924;28;20205;-83
2023/08/18 02:45:16;;;;;;;4.75;3.10;;;24.20;65.50;;;;;;4996371;28;20205;-83
2023/08/18 02:47:45;;;;;;;3.92;3.10;;;24.20;65.30;;;;;;4995237;28;20217;-83
2023/08/18 02:50:14;;;;;;;4.68;3.40;;;24.20;65.40;;;;;;4994912;28;20205;-83
2023/08/18 02:52:41;;;;;;;3.47;3.17;;;24.20;65.30;;;;;;4994737;28;20225;-83
2023/08/18 02:55:09;;;;;;;5.05;3.47;;;24.20;65.20;;;;;;4994932;28;20210;-83
2023/08/18 02:57:36;;;;;;;4.10;3.20;;;24.10;65.10;;;;;;4994337;28;20253;-83
2023/08/18 03:00:04;;;;;;;3.30;3.00;;;24.20;65.10;;;;;;4994422;28;20193;-83
2023/08/18 03:02:31;;;;;;;3.08;2.65;;;24.10;65.10;;;;;;4994728;28;20212;-83
2023/08/18 03:04:58;;;;;;;3.92;3.10;;;24.20;64.70;;;;;;4994622;28;20220;-83
2023/08/18 03:07:27;;;;;;;4.35;3.10;;;24.10;64.10;;;;;;4994348;28;20329;-83
2023/08/18 03:09:54;;;;;;;3.00;2.70;;;24.10;64.20;;;;;;4994337;28;20652;-83
2023/08/18 03:12:22;;;;;;;3.17;2.85;;;24.10;63.90;;;;;;4994704;28;20198;-84
2023/08/18 03:14:49;;;;;;;3.15;2.85;;;24.10;63.70;;;;;;4995013;28;20236;-84
2023/08/18 03:17:18;;;;;;;5.18;3.00;;;24.10;63.70;;;;;;4994457;28;20197;-84
2023/08/18 03:19:46;;;;;;;3.50;3.13;;;24.10;64.40;;;;;;4994806;28;20231;-84
2023/08/18 03:22:13;;;;;;;4.07;3.30;;;24.10;63.40;;;;;;4994510;28;20221;-84
2023/08/18 03:24:42;;;;;;;4.03;3.15;;;24.20;63.70;;;;;;4994639;28;20228;-83
2023/08/18 03:27:09;;;;;;;3.45;2.60;;;24.20;63.60;;;;;;4977751;28;20638;-84
2023/08/18 03:29:36;;;;;;;4.90;2.88;;;24.20;63.50;;;;;;4993949;28;20288;-84
2023/08/18 03:32:04;;;;;;;3.05;2.75;;;24.10;63.30;;;;;;4993910;28;20747;-84
2023/08/18 03:34:31;;;;;;;3.38;3.08;;;24.20;63.00;;;;;;4993835;28;20655;-84
2023/08/18 03:36:59;;;;;;;4.30;3.03;;;24.20;62.90;;;;;;4994496;28;20201;-84
2023/08/18 03:39:26;;;;;;;3.30;2.70;;;24.30;62.80;;;;;;4995244;28;20718;-84
2023/08/18 03:41:54;;;;;;;3.97;2.55;;;24.30;62.30;;;;;;4994810;28;20308;-84
2023/08/18 03:44:21;;;;;;;3.22;2.78;;;24.30;62.70;;;;;;5012522;23;20719;-85
2023/08/18 03:46:49;;;;;;;3.03;2.70;;;24.30;62.40;;;;;;4997795;28;20239;-85
2023/08/18 03:49:16;;;;;;;2.95;2.60;;;24.30;62.10;;;;;;5011315;28;20220;-83
2023/08/18 03:51:43;;;;;;;3.22;2.60;;;24.30;61.90;;;;;;5020740;28;20247;-83
2023/08/18 03:54:10;;;;;;;5.10;2.83;;;24.30;61.90;;;;;;5020380;28;20185;-82
2023/08/18 03:56:38;;;;;;;3.30;3.00;;;24.30;61.70;;;;;;5014020;28;20734;-83
2023/08/18 03:59:06;;;;;;;4.13;2.83;;;24.30;61.60;;;;;;4999534;28;20192;-83
2023/08/18 04:01:33;;;;;;;4.93;2.90;;;24.30;61.50;;;;;;4999943;28;20303;-83
2023/08/18 04:04:00;;;;;;;2.85;2.60;;;24.30;61.40;;;;;;4999924;28;20243;-83
2023/08/18 04:06:27;;;;;;;3.38;2.60;;;24.30;61.40;;;;;;4998196;28;20201;-83
2023/08/18 04:09:06;;;;;;;4.00;3.00;;;24.30;61.40;;;;;;4996846;28;20219;-83
2023/08/18 04:11:34;;;;;;;3.10;2.72;;;24.30;61.60;;;;;;4997040;28;20306;-83
2023/08/18 04:14:01;;;;;;;6.28;2.95;;;24.30;61.70;;;;;;4980871;28;20303;-83
2023/08/18 04:16:31;;;;;;;6.78;3.20;;;24.30;61.70;;;;;;4997245;28;20199;-83
2023/08/18 04:18:58;;;;;;;3.25;2.63;;;24.20;61.60;;;;;;4997514;28;20193;-83
2023/08/18 04:21:27;;;;;;;3.72;2.92;;;24.20;61.60;;;;;;4998768;28;20231;-83
2023/08/18 04:23:54;;;;;;;3.67;2.45;;;24.20;61.60;;;;;;4998804;28;20203;-83
2023/08/18 04:26:23;;;;;;;4.25;2.80;;;24.20;61.60;;;;;;4997818;28;20200;-85
2023/08/18 04:28:52;;;;;;;5.40;2.85;;;24.20;61.50;;;;;;4996578;28;20212;-84
2023/08/18 04:31:21;;;;;;;4.10;3.58;;;24.20;61.70;;;;;;4996187;28;20216;-85
2023/08/18 04:33:55;;;;;;;4.20;3.08;;;24.20;61.70;;;;;;4996009;28;20203;-85
2023/08/18 04:36:23;;;;;;;4.28;3.08;;;24.20;62.10;;;;;;4996368;28;20259;-83
2023/08/18 04:38:50;;;;;;;4.25;2.58;;;24.10;61.70;;;;;;4996257;28;20192;-83
2023/08/18 04:41:22;;;;;;;5.50;2.97;;;24.10;61.80;;;;;;4996518;28;20306;-83
2023/08/18 04:43:52;;;;;;;3.50;3.13;;;24.10;59.60;;;;;;4996688;28;20205;-83
2023/08/18 04:46:23;;;;;;;3.85;3.10;;;23.90;59.00;;;;;;4997107;28;20203;-83
2023/08/18 04:48:51;;;;;;;3.92;2.95;;;23.80;59.20;;;;;;4997425;28;20213;-82
2023/08/18 04:51:19;;;;;;;4.90;3.25;;;23.60;59.30;;;;;;4999194;28;20695;-82
2023/08/18 04:53:46;;;;;;;3.97;2.95;;;23.40;60.00;;;;;;5017246;28;20300;-82
2023/08/18 04:56:13;;;;;;;4.95;3.35;;;23.30;60.30;;;;;;5000674;28;20200;-82
2023/08/18 04:58:41;;;;;;;7.32;3.30;;;23.20;60.70;;;;;;5000861;28;20193;-82
2023/08/18 05:01:08;;;;;;;4.97;3.20;;;23.10;60.80;;;;;;5000052;28;20227;-82
2023/08/18 05:03:36;;;;;;;5.25;3.30;;;23.00;61.60;;;;;;4999892;28;20265;-82
2023/08/18 05:06:07;;;;;;;3.53;3.22;;;22.90;61.70;;;;;;5000030;28;20211;-82
2023/08/18 05:08:36;;;;;;;6.88;3.10;;;22.80;62.60;;;;;;5017756;28;20280;-82
2023/08/18 05:11:04;;;;;;;4.55;3.17;;;22.70;63.10;;;;;;4999908;28;20591;-83
2023/08/18 05:13:31;;;;;;;4.32;3.15;;;22.60;62.90;;;;;;5018480;28;20618;-84
2023/08/18 05:15:59;;;;;;;3.70;3.20;;;22.70;63.60;;;;;;5000748;28;20254;-85
2023/08/18 05:18:28;;;;;;;4.68;3.20;;;22.70;63.30;;;;;;4999578;28;20193;-85
2023/08/18 05:20:55;;;;;;;4.05;2.97;;;22.90;63.40;;;;;;4999899;28;20730;-85
2023/08/18 05:23:22;;;;;;;3.40;3.10;;;23.00;63.40;;;;;;5000327;28;20216;-85
2023/08/18 05:25:54;;;;;;;3.47;3.03;;;23.20;63.30;;;;;;4999500;28;20200;-85
2023/08/18 05:28:21;;;;;;;4.75;2.95;;;23.40;62.90;;;;;;4999116;28;20283;-85
2023/08/18 05:30:48;;;;;;;3.83;2.85;;;23.50;62.30;;;;;;4999458;28;20278;-85
2023/08/18 05:33:15;;;;;;;3.67;3.13;;;23.70;62.10;;;;;;4999802;28;20225;-84
2023/08/18 05:35:41;;;;;;;4.82;3.47;;;23.90;61.70;;;;;;4999264;28;20189;-85
2023/08/18 05:38:10;;;;;;;3.58;3.00;;;24.10;61.30;;;;;;4999201;28;20195;-85
2023/08/18 05:40:40;;;;;;;3.50;3.15;;;24.30;60.90;;;;;;4983615;28;20223;-85
2023/08/18 05:43:09;;;;;;;4.72;3.05;;;24.40;60.50;;;;;;4999271;28;20205;-84
2023/08/18 05:45:36;;;;;;;3.80;3.25;;;24.50;60.00;;;;;;4999585;28;20201;-85
2023/08/18 05:48:03;;;;;;;5.07;3.10;;;24.70;59.80;;;;;;4999711;28;20213;-82
2023/08/18 05:50:31;;;;;;;3.70;3.40;;;24.80;59.50;;;;;;4999263;28;20260;-83
2023/08/18 05:52:58;;;;;;;3.55;3.20;;;24.90;59.10;;;;;;4999196;28;20666;-83
2023/08/18 05:55:25;;;;;;;4.40;3.20;;;25.10;58.90;;;;;;4999083;28;20192;-83
2023/08/18 05:57:52;;;;;;;3.25;2.90;;;25.20;59.20;;;;;;4998901;28;20227;-83
2023/08/18 06:00:21;;;;;;;4.63;2.90;;;25.30;58.40;;;;;;4998874;28;20208;-83
2023/08/18 06:02:48;;;;;;;2.97;2.70;;;25.40;58.10;;;;;;4998398;28;20211;-83
2023/08/18 06:05:15;;;;;;;4.95;3.30;;;25.60;57.90;;;;;;4999072;28;20204;-83
2023/08/18 06:07:43;;;;;;;3.63;2.63;;;25.60;57.60;;;;;;4999689;28;20305;-83
2023/08/18 06:10:11;;;;;;;5.18;2.90;;;25.70;57.40;;;;;;4983609;28;20204;-83
2023/08/18 06:12:38;;;;;;;3.85;2.60;;;25.90;57.30;;;;;;4998750;28;20200;-83
2023/08/18 06:15:07;;;;;;;3.97;3.10;;;25.90;56.90;;;;;;4998565;28;20204;-83
2023/08/18 06:17:35;;;;;;;3.00;2.80;;;26.10;56.70;;;;;;4998816;28;20200;-83
2023/08/18 06:20:02;;;;;;;4.20;3.08;;;26.20;56.50;;;;;;4998448;28;20204;-83
2023/08/18 06:22:29;;;;;;;3.42;2.70;;;26.30;56.20;;;;;;4999015;28;20598;-83
2023/08/18 06:24:56;;;;;;;4.15;2.75;;;26.40;56.10;;;;;;4998342;28;20258;-83
2023/08/18 06:27:23;;;;;;;3.47;2.75;;;26.50;55.90;;;;;;4998695;28;20196;-83
2023/08/18 06:29:50;;;;;;;3.50;2.83;;;26.60;55.70;;;;;;4998846;28;20212;-83
2023/08/18 06:32:17;;;;;;;3.42;2.72;;;26.70;55.40;;;;;;4998907;28;20219;-83
2023/08/18 06:34:46;;;;;;;3.65;2.80;;;26.80;55.20;;;;;;4998931;28;20204;-83
2023/08/18 06:37:12;;;;;;;3.53;2.70;;;26.90;55.30;;;;;;5001252;28;20200;-83
2023/08/18 06:39:40;;;;;;;7.05;2.83;;;26.90;55.10;;;;;;4998989;28;20246;-83
2023/08/18 06:42:07;;;;;;;2.90;2.45;;;27.00;54.90;;;;;;4998393;28;20281;-83
2023/08/18 06:44:34;;;;;;;4.30;2.75;;;27.00;54.80;;;;;;4998046;28;20274;-83
2023/08/18 06:47:01;;;;;;;3.67;2.83;;;27.10;54.70;;;;;;4998506;28;20207;-83
2023/08/18 06:49:28;;;;;;;3.85;2.83;;;27.10;54.60;;;;;;4998182;28;20236;-83
2023/08/18 06:51:57;;;;;;;3.30;3.00;;;27.20;54.60;;;;;;4998125;28;20224;-83
2023/08/18 06:54:24;;;;;;;6.43;2.78;;;27.20;54.40;;;;;;4998330;28;20200;-83
2023/08/18 06:56:52;;;;;;;4.85;3.28;;;27.30;54.30;;;;;;4998542;28;20571;-83
2023/08/18 06:59:19;;;;;;;5.05;2.83;;;27.40;54.20;;;;;;4998544;28;20200;-83
2023/08/18 07:01:46;;;;;;;3.55;2.80;;;27.50;54.10;;;;;;5000512;28;20220;-83
2023/08/18 07:04:13;;;;;;;5.30;2.80;;;27.50;53.90;;;;;;4998983;28;20205;-83
2023/08/18 07:06:41;;;;;;;4.50;3.10;;;27.60;53.80;;;;;;4997414;28;20196;-83
2023/08/18 07:09:10;;;;;;;5.55;2.90;;;27.60;53.60;;;;;;4983806;28;20315;-83
2023/08/18 07:11:38;;;;;;;4.40;3.03;;;27.70;53.50;;;;;;4998381;28;20219;-83
2023/08/18 07:14:05;;;;;;;5.15;3.05;;;27.80;53.40;;;;;;4997597;28;20713;-83
2023/08/18 07:16:33;;;;;;;3.58;2.80;;;27.90;53.30;;;;;;4996748;28;20539;-83
2023/08/18 07:19:00;;;;;;;3.95;2.90;;;27.90;53.10;;;;;;4982323;28;20196;-83
2023/08/18 07:21:27;;;;;;;7.00;2.85;;;28.00;53.00;;;;;;4981417;28;20228;-83
2023/08/18 07:23:53;;;;;;;4.50;2.67;;;28.00;52.90;;;;;;4998216;28;20196;-83
2023/08/18 07:26:22;;;;;;;4.38;3.13;;;28.10;52.80;;;;;;4999643;28;20200;-83
2023/08/18 07:28:49;;;;;;;4.32;2.70;;;28.10;52.60;;;;;;5017489;28;20215;-82
2023/08/18 07:31:17;;;;;;;5.97;2.80;;;28.20;52.50;;;;;;4984545;28;20220;-83
2023/08/18 07:33:44;;;;;;;4.05;2.88;;;28.30;52.50;;;;;;4999236;28;20200;-83
2023/08/18 07:36:11;;;;;;;4.30;3.00;;;28.30;52.30;;;;;;4997344;28;20212;-83
2023/08/18 07:38:38;;;;;;;3.63;2.70;;;28.40;52.20;;;;;;4996891;28;20196;-83
2023/08/18 07:41:06;;;;;;;3.13;2.58;;;28.40;52.00;;;;;;4997432;28;20243;-83
2023/08/18 07:43:35;;;;;;;2.95;2.50;;;28.50;51.90;;;;;;4997168;28;20651;-82
2023/08/18 07:46:02;;;;;;;4.00;2.80;;;28.50;51.90;;;;;;5000263;28;20203;-83
2023/08/18 07:48:29;;;;;;;2.55;2.35;;;28.50;51.80;;;;;;4997194;28;20222;-83
2023/08/18 07:50:57;;;;;;;3.97;2.97;;;28.60;51.70;;;;;;4997165;28;20273;-83
2023/08/18 07:53:26;;;;;;;4.85;2.78;;;28.60;51.60;;;;;;4996858;28;20200;-83
2023/08/18 07:55:53;;;;;;;3.60;2.60;;;28.70;51.60;;;;;;4996854;28;20196;-83
2023/08/18 07:58:20;;;;;;;4.38;2.75;;;28.70;51.40;;;;;;4996723;28;20188;-83
2023/08/18 08:00:49;;;;;;;3.05;2.70;;;28.80;51.40;;;;;;4996704;28;20231;-83
2023/08/18 08:03:16;;;;;;;5.32;2.67;;;28.80;51.30;;;;;;4996764;28;20200;-83
2023/08/18 08:05:43;;;;;;;2.60;2.40;;;28.80;51.20;;;;;;4996647;28;20199;-82
2023/08/18 08:08:11;;;;;;;3.03;2.60;;;28.90;51.20;;;;;;4997328;28;20207;-83
2023/08/18 08:10:39;;;;;;;3.90;2.60;;;28.90;51.10;;;;;;4997305;28;20243;-83
2023/08/18 08:13:06;;;;;;;2.75;2.25;;;28.90;51.00;;;;;;4997076;28;20295;-83
2023/08/18 08:15:33;;;;;;;2.80;2.60;;;28.90;50.90;;;;;;4996573;28;20578;-83
2023/08/18 08:18:02;;;;;;;2.78;2.58;;;29.00;51.00;;;;;;4998492;28;20210;-82
2023/08/18 08:20:29;;;;;;;4.00;2.50;;;29.00;50.80;;;;;;4996995;28;20220;-83
2023/08/18 08:22:56;;;;;;;3.20;2.70;;;29.00;50.80;;;;;;4981364;28;20195;-83
2023/08/18 08:25:24;;;;;;;3.22;2.50;;;29.10;50.80;;;;;;4996208;28;20211;-83
2023/08/18 08:27:51;;;;;;;3.13;2.13;;;29.00;50.60;;;;;;4999927;28;20199;-83
2023/08/18 08:30:19;;;;;;;3.65;2.60;;;29.10;50.60;;;;;;5000754;28;20590;-83
2023/08/18 08:32:45;;;;;;;3.00;2.50;;;29.10;50.60;;;;;;5000702;28;20725;-83
2023/08/18 08:35:14;;;;;;;3.20;2.50;;;29.10;50.60;;;;;;5000576;28;20210;-83
2023/08/18 08:37:42;;;;;;;2.58;2.28;;;29.10;50.50;;;;;;5000251;28;20227;-83
2023/08/18 08:40:14;;;;;;;4.20;2.55;;;29.20;50.50;;;;;;5000154;28;20286;-83
2023/08/18 08:42:41;;;;;;;2.58;2.25;;;29.20;50.50;;;;;;5000183;28;20640;-83
2023/08/18 08:45:09;;;;;;;2.65;2.40;;;29.30;50.50;;;;;;5000111;28;20204;-83
2023/08/18 08:47:36;;;;;;;2.83;2.45;;;29.30;50.40;;;;;;5000912;28;20200;-83
2023/08/18 08:50:04;;;;;;;3.47;2.58;;;29.30;50.30;;;;;;5000688;28;20298;-83
2023/08/18 08:52:37;;;;;;;3.08;2.40;;;29.40;50.30;;;;;;5000526;28;20207;-83
2023/08/18 08:55:05;;;;;;;3.65;2.50;;;29.40;50.30;;;;;;5000012;28;20239;-82
2023/08/18 08:57:32;;;;;;;3.50;2.47;;;29.40;50.20;;;;;;5000222;28;20766;-83
2023/08/18 08:59:59;;;;;;;2.65;2.42;;;29.40;50.20;;;;;;5000934;28;20270;-84
2023/08/18 09:02:27;;;;;;;2.70;2.50;;;29.50;50.10;;;;;;5000169;28;20200;-83
2023/08/18 09:04:54;;;;;;;2.47;2.28;;;29.50;50.00;;;;;;5019042;28;20196;-83
2023/08/18 09:07:21;;;;;;;2.53;2.33;;;29.60;50.00;;;;;;5002409;28;20207;-83
2023/08/18 09:09:50;;;;;;;2.65;2.13;;;29.60;50.00;;;;;;5000125;28;20334;-83
2023/08/18 09:12:18;;;;;;;2.80;2.42;;;29.60;49.90;;;;;;5000114;28;20227;-83
2023/08/18 09:14:45;;;;;;;2.92;2.40;;;29.60;49.80;;;;;;5000800;28;20231;-83
2023/08/18 09:17:13;;;;;;;2.42;2.22;;;29.60;49.80;;;;;;4999764;28;20223;-83
2023/08/18 09:19:39;;;;;;;2.72;2.13;;;29.70;49.80;;;;;;4999418;28;20651;-83
2023/08/18 09:22:07;;;;;;;2.83;2.53;;;29.70;49.70;;;;;;4999494;28;20230;-83
2023/08/18 09:24:34;;;;;;;2.50;2.30;;;29.70;49.60;;;;;;4999266;28;20208;-83
2023/08/18 09:27:07;;;;;;;3.08;2.35;;;29.70;49.50;;;;;;4999349;28;20200;-83
2023/08/18 09:29:35;;;;;;;3.03;2.30;;;29.80;49.50;;;;;;4999594;28;20298;-83
2023/08/18 09:32:02;;;;;;;3.13;2.22;;;29.80;49.50;;;;;;4999173;28;20681;-83
2023/08/18 09:34:31;;;;;;;2.72;2.42;;;29.80;49.40;;;;;;4983284;28;20210;-83
2023/08/18 09:36:58;;;;;;;2.15;1.95;;;29.80;49.50;;;;;;4983192;28;20189;-83
2023/08/18 09:39:26;;;;;;;2.63;2.28;;;29.90;49.50;;;;;;4999440;28;20192;-83
2023/08/18 09:41:54;;;;;;;2.63;2.42;;;29.80;49.40;;;;;;4999514;28;20691;-83
2023/08/18 09:44:22;;;;;;;2.30;2.10;;;29.90;49.50;;;;;;5047056;22;20232;-80
2023/08/18 09:46:51;;;;;;;2.33;2.13;;;29.80;49.40;;;;;;4979884;28;20204;-80
2023/08/18 09:49:18;;;;;;;2.78;2.20;;;29.80;49.40;;;;;;4963347;28;20216;-79
2023/08/18 09:51:46;;;;;;;2.25;2.10;;;29.90;49.50;;;;;;4979751;28;20232;-80
2023/08/18 09:54:13;;;;;;;2.78;2.25;;;29.90;49.50;;;;;;4979639;28;20219;-80
2023/08/18 09:56:41;;;;;;;1.90;1.80;;;29.90;49.50;;;;;;4979432;28;20284;-80
2023/08/18 09:59:11;;;;;;;2.33;2.13;;;29.80;49.40;;;;;;4979644;28;20205;-80
2023/08/18 10:01:40;;;;;;;2.38;2.00;;;29.90;49.50;;;;;;4979334;28;20244;-80
2023/08/18 10:04:07;;;;;;;2.35;2.15;;;29.90;49.60;;;;;;4981100;28;20527;-80
2023/08/18 10:06:36;;;;;;;2.40;2.20;;;29.80;49.50;;;;;;4981372;28;20204;-80
2023/08/18 10:09:03;;;;;;;2.10;2.00;;;29.80;49.60;;;;;;4965323;28;20635;-80
2023/08/18 10:11:30;;;;;;;2.75;2.28;;;29.80;49.60;;;;;;4981051;28;20554;-80
2023/08/18 10:13:57;;;;;;;2.22;2.03;;;29.80;49.70;;;;;;4980939;28;20232;-80
2023/08/18 10:16:25;;;;;;;2.60;2.40;;;29.80;49.80;;;;;;4980508;28;20574;-80
2023/08/18 10:18:56;;;;;;;2.33;2.13;;;29.80;49.80;;;;;;4980557;28;20193;-80
2023/08/18 10:21:24;;;;;;;2.30;2.10;;;29.70;49.90;;;;;;4981148;28;20244;-80
2023/08/18 10:23:50;;;;;;;2.25;1.90;;;29.80;50.00;;;;;;4997009;28;20196;-80
2023/08/18 10:26:18;;;;;;;2.50;2.30;;;29.70;50.00;;;;;;4980829;28;20204;-80
2023/08/18 10:28:44;;;;;;;1.98;1.88;;;29.70;50.10;;;;;;4980502;28;20193;-80
2023/08/18 10:31:11;;;;;;;2.60;2.10;;;29.70;50.20;;;;;;4979875;28;20247;-80
2023/08/18 10:33:43;;;;;;;2.13;1.92;;;29.60;50.30;;;;;;4979665;28;20251;-80
2023/08/18 10:36:15;;;;;;;2.00;1.90;;;29.60;50.30;;;;;;4980631;28;20224;-80
2023/08/18 10:38:42;;;;;;;3.63;2.15;;;29.60;50.50;;;;;;4980119;28;20670;-80
2023/08/18 10:41:09;;;;;;;2.08;1.90;;;29.50;50.50;;;;;;4979262;28;20213;-81
2023/08/18 10:43:45;;;;;;;2.30;2.20;;;29.50;50.60;;;;;;4979570;28;20564;-81
2023/08/18 10:46:12;;;;;;;2.17;1.98;;;29.50;50.70;;;;;;4979449;28;20292;-81
2023/08/18 10:48:39;;;;;;;2.10;2.00;;;29.40;50.80;;;;;;4979303;28;20711;-81
2023/08/18 10:51:07;;;;;;;2.35;2.17;;;29.40;51.00;;;;;;4978663;28;20267;-81
2023/08/18 10:53:37;;;;;;;2.10;2.00;;;29.30;51.00;;;;;;4978692;28;20300;-81
2023/08/18 10:56:04;;;;;;;2.47;2.28;;;29.30;51.20;;;;;;4978715;28;20292;-81
2023/08/18 10:58:31;;;;;;;2.35;2.13;;;29.30;51.30;;;;;;4978756;28;20205;-81
2023/08/18 11:00:59;;;;;;;2.17;1.98;;;29.20;51.40;;;;;;4980087;28;20209;-81
2023/08/18 11:03:26;;;;;;;2.47;2.20;;;29.20;51.50;;;;;;4980001;28;20204;-80
2023/08/18 11:05:53;;;;;;;2.10;1.98;;;29.20;51.70;;;;;;4979905;28;20224;-80
2023/08/18 11:08:21;;;;;;;2.25;2.05;;;29.10;51.70;;;;;;4979521;28;20332;-80
2023/08/18 11:10:49;;;;;;;2.10;2.00;;;29.10;51.80;;;;;;4979156;28;20268;-80
2023/08/18 11:13:24;;;;;;;2.47;2.00;;;29.10;52.00;;;;;;4980059;28;20234;-80
2023/08/18 11:15:51;;;;;;;2.03;1.92;;;29.00;52.10;;;;;;4979926;28;20210;-80
2023/08/18 11:18:19;;;;;;;2.10;2.00;;;29.00;52.20;;;;;;4980391;28;20205;-80
2023/08/18 11:20:46;;;;;;;2.15;1.95;;;29.00;52.20;;;;;;4983883;28;20224;-80
2023/08/18 11:23:13;;;;;;;2.08;1.88;;;28.90;52.20;;;;;;4984653;28;20196;-80
2023/08/18 11:25:40;;;;;;;2.03;1.92;;;28.90;52.30;;;;;;4980323;28;20200;-80
2023/08/18 11:28:09;;;;;;;3.30;2.10;;;28.90;52.50;;;;;;4979734;28;20212;-80
2023/08/18 11:30:36;;;;;;;2.17;1.90;;;28.90;52.60;;;;;;4978711;28;20221;-80
2023/08/18 11:33:03;;;;;;;2.03;1.92;;;28.80;52.60;;;;;;4978677;28;20577;-80
2023/08/18 11:35:31;;;;;;;2.13;1.92;;;28.90;52.80;;;;;;4979634;28;20546;-80
2023/08/18 11:37:58;;;;;;;1.77;1.67;;;28.80;52.80;;;;;;4980016;28;20197;-81
2023/08/18 11:40:25;;;;;;;2.00;1.80;;;28.80;52.80;;;;;;4980367;28;20212;-79
2023/08/18 11:42:53;;;;;;;2.05;1.83;;;28.80;53.50;;;;;;4980453;28;20256;-80
2023/08/18 11:45:22;;;;;;;2.03;1.92;;;28.80;52.90;;;;;;4980329;28;20253;-80
2023/08/18 11:47:57;;;;;;;1.92;1.73;;;28.80;53.00;;;;;;4980846;28;20193;-79
2023/08/18 11:50:31;;;;;;;1.90;1.80;;;28.80;53.00;;;;;;4996326;28;20239;-80
2023/08/18 11:52:58;;;;;;;2.10;1.92;;;28.80;53.00;;;;;;4978616;28;20205;-81
2023/08/18 11:55:33;;;;;;;2.13;2.00;;;28.80;53.10;;;;;;4979085;28;20204;-81
2023/08/18 11:58:04;;;;;;;2.28;1.90;;;28.80;53.10;;;;;;4978693;28;20192;-80
2023/08/18 12:00:35;;;;;;;2.20;2.00;;;28.80;53.10;;;;;;4978118;28;20280;-80
2023/08/18 12:03:03;;;;;;;2.08;1.90;;;28.80;53.10;;;;;;4978045;28;20247;-80
2023/08/18 12:05:30;;;;;;;1.95;1.80;;;28.80;53.10;;;;;;4978149;28;20204;-81
2023/08/18 12:07:58;;;;;;;2.20;1.98;;;28.80;53.20;;;;;;4978255;28;20204;-81
2023/08/18 12:10:25;;;;;;;2.17;1.98;;;28.80;53.20;;;;;;4978585;28;20232;-81
2023/08/18 12:12:52;;;;;;;2.03;1.80;;;28.80;53.20;;;;;;4978786;28;20204;-80
2023/08/18 12:15:20;;;;;;;2.13;1.90;;;28.80;53.20;;;;;;4978348;28;20255;-80
2023/08/18 12:17:48;;;;;;;2.00;1.90;;;28.80;53.30;;;;;;4978334;28;20208;-80
2023/08/18 12:20:18;;;;;;;2.42;1.95;;;28.80;53.30;;;;;;4978874;28;20239;-80
2023/08/18 12:22:46;;;;;;;1.77;1.67;;;28.80;53.40;;;;;;4978169;28;20201;-81
2023/08/18 12:25:13;;;;;;;1.80;1.70;;;28.80;53.40;;;;;;4978143;28;20196;-81
2023/08/18 12:27:40;;;;;;;2.08;1.80;;;28.80;54.10;;;;;;4978443;28;20197;-81
2023/08/18 12:30:08;;;;;;;1.95;1.85;;;28.80;53.50;;;;;;4995106;28;20216;-81
2023/08/18 12:32:36;;;;;;;1.77;1.67;;;28.80;53.60;;;;;;4963079;28;20244;-80
2023/08/18 12:35:06;;;;;;;1.95;1.85;;;28.80;53.60;;;;;;4977787;28;20201;-80
2023/08/18 12:37:34;;;;;;;1.90;1.80;;;28.80;53.70;;;;;;4978167;28;20204;-81
2023/08/18 12:40:01;;;;;;;2.15;1.95;;;28.70;53.70;;;;;;4977867;28;20280;-80
2023/08/18 12:42:30;;;;;;;1.85;1.75;;;28.70;53.70;;;;;;4977987;28;20200;-81
2023/08/18 12:44:57;;;;;;;2.45;1.85;;;28.70;53.70;;;;;;4981793;28;20239;-81
2023/08/18 12:47:24;;;;;;;1.80;1.70;;;28.70;53.80;;;;;;4977100;28;20259;-81
2023/08/18 12:49:51;;;;;;;2.05;1.80;;;28.70;53.80;;;;;;4977460;28;20256;-81